sensor_id;sensor_type;location;lat;lon;timestamp;pressure;altitude;pressure_sealevel;temperature;humidity
69245;BME280;56357;52.304;4.870;2023-10-31T00:00:16;99853.66;;;18.03;63.58
69245;BME280;56357;52.304;4.870;2023-10-31T00:02:42;99842.84;;;17.96;63.55
69245;BME280;56357;52.304;4.870;2023-10-31T00:05:09;99844.41;;;18.02;63.74
69245;BME280;56357;52.304;4.870;2023-10-31T00:07:35;99849.34;;;18.10;63.84
69245;BME280;56357;52.304;4.870;2023-10-31T00:10:02;99844.72;;;18.01;63.65
69245;BME280;56357;52.304;4.870;2023-10-31T00:12:28;99843.31;;;18.03;63.59
69245;BME280;56357;52.304;4.870;2023-10-31T00:14:55;99844.94;;;18.04;63.86
69245;BME280;56357;52.304;4.870;2023-10-31T00:17:21;99836.84;;;18.03;63.75
69245;BME280;56357;52.304;4.870;2023-10-31T00:19:48;99846.00;;;18.08;63.48
69245;BME280;56357;52.304;4.870;2023-10-31T00:22:14;99848.28;;;18.06;63.77
69245;BME280;56357;52.304;4.870;2023-10-31T00:24:41;99842.69;;;18.06;63.73
69245;BME280;56357;52.304;4.870;2023-10-31T00:27:07;99848.50;;;18.10;63.15
69245;BME280;56357;52.304;4.870;2023-10-31T00:29:34;99850.56;;;18.04;63.49
69245;BME280;56357;52.304;4.870;2023-10-31T00:32:00;99853.66;;;18.03;63.35
69245;BME280;56357;52.304;4.870;2023-10-31T00:34:27;99851.94;;;18.07;63.71
69245;BME280;56357;52.304;4.870;2023-10-31T00:36:53;99849.97;;;18.07;63.66
69245;BME280;56357;52.304;4.870;2023-10-31T00:39:19;99845.16;;;18.08;63.48
69245;BME280;56357;52.304;4.870;2023-10-31T00:41:47;99845.78;;;18.05;63.32
69245;BME280;56357;52.304;4.870;2023-10-31T00:44:13;99847.22;;;18.02;63.35
69245;BME280;56357;52.304;4.870;2023-10-31T00:46:40;99854.50;;;18.03;63.45
69245;BME280;56357;52.304;4.870;2023-10-31T00:49:06;99855.03;;;18.05;63.47
69245;BME280;56357;52.304;4.870;2023-10-31T00:51:32;99854.41;;;18.08;63.23
69245;BME280;56357;52.304;4.870;2023-10-31T00:53:59;99854.94;;;18.10;63.58
69245;BME280;56357;52.304;4.870;2023-10-31T00:56:26;99856.78;;;18.01;63.43
69245;BME280;56357;52.304;4.870;2023-10-31T00:58:52;99858.44;;;18.02;63.52
69245;BME280;56357;52.304;4.870;2023-10-31T01:01:18;99861.00;;;17.99;63.67
69245;BME280;56357;52.304;4.870;2023-10-31T01:03:45;99861.84;;;17.99;63.82
69245;BME280;56357;52.304;4.870;2023-10-31T01:06:11;99868.22;;;18.05;63.49
69245;BME280;56357;52.304;4.870;2023-10-31T01:08:37;99870.69;;;18.06;63.20
69245;BME280;56357;52.304;4.870;2023-10-31T01:11:04;99872.22;;;17.99;63.59
69245;BME280;56357;52.304;4.870;2023-10-31T01:13:31;99873.59;;;18.01;63.25
69245;BME280;56357;52.304;4.870;2023-10-31T01:15:58;99874.19;;;17.98;63.58
69245;BME280;56357;52.304;4.870;2023-10-31T01:18:24;99885.09;;;18.00;63.42
69245;BME280;56357;52.304;4.870;2023-10-31T01:20:51;99881.06;;;18.06;63.39
69245;BME280;56357;52.304;4.870;2023-10-31T01:23:17;99880.31;;;18.00;63.26
69245;BME280;56357;52.304;4.870;2023-10-31T01:25:44;99876.97;;;17.98;63.66
69245;BME280;56357;52.304;4.870;2023-10-31T01:28:10;99880.31;;;18.00;63.76
69245;BME280;56357;52.304;4.870;2023-10-31T01:30:37;99883.22;;;17.95;63.52
69245;BME280;56357;52.304;4.870;2023-10-31T01:33:03;99895.25;;;17.96;63.33
69245;BME280;56357;52.304;4.870;2023-10-31T01:35:29;99897.53;;;17.94;63.21
69245;BME280;56357;52.304;4.870;2023-10-31T01:37:56;99899.41;;;17.98;63.42
69245;BME280;56357;52.304;4.870;2023-10-31T01:40:22;99904.78;;;17.95;63.32
69245;BME280;56357;52.304;4.870;2023-10-31T01:42:48;99909.00;;;17.92;63.55
69245;BME280;56357;52.304;4.870;2023-10-31T01:45:15;99915.44;;;17.93;63.36
69245;BME280;56357;52.304;4.870;2023-10-31T01:47:43;99916.81;;;17.95;63.25
69245;BME280;56357;52.304;4.870;2023-10-31T01:50:11;99915.22;;;17.89;63.39
69245;BME280;56357;52.304;4.870;2023-10-31T01:52:38;99920.22;;;17.92;63.00
69245;BME280;56357;52.304;4.870;2023-10-31T01:55:05;99926.28;;;17.99;63.28
69245;BME280;56357;52.304;4.870;2023-10-31T01:57:32;99925.00;;;17.92;63.42
69245;BME280;56357;52.304;4.870;2023-10-31T01:59:58;99927.50;;;17.93;63.49
69245;BME280;56357;52.304;4.870;2023-10-31T02:02:26;99927.28;;;17.90;63.24
69245;BME280;56357;52.304;4.870;2023-10-31T02:04:53;99925.81;;;17.92;63.29
69245;BME280;56357;52.304;4.870;2023-10-31T02:07:20;99929.00;;;17.86;63.42
69245;BME280;56357;52.304;4.870;2023-10-31T02:09:46;99922.25;;;17.87;63.56
69245;BME280;56357;52.304;4.870;2023-10-31T02:12:31;99929.84;;;17.86;63.53
69245;BME280;56357;52.304;4.870;2023-10-31T02:14:58;99933.41;;;17.92;63.30
69245;BME280;56357;52.304;4.870;2023-10-31T02:17:24;99936.50;;;17.90;62.96
69245;BME280;56357;52.304;4.870;2023-10-31T02:19:51;99937.19;;;17.82;63.46
69245;BME280;56357;52.304;4.870;2023-10-31T02:22:18;99938.25;;;17.86;63.32
69245;BME280;56357;52.304;4.870;2023-10-31T02:24:44;99939.38;;;17.85;62.99
69245;BME280;56357;52.304;4.870;2023-10-31T02:27:10;99941.94;;;17.82;63.07
69245;BME280;56357;52.304;4.870;2023-10-31T02:29:39;99937.50;;;17.99;62.94
69245;BME280;56357;52.304;4.870;2023-10-31T02:32:05;99940.25;;;17.81;63.38
69245;BME280;56357;52.304;4.870;2023-10-31T02:34:32;99941.06;;;17.86;62.84
69245;BME280;56357;52.304;4.870;2023-10-31T02:36:59;99954.53;;;18.03;62.58
69245;BME280;56357;52.304;4.870;2023-10-31T02:39:26;99955.06;;;17.86;62.86
69245;BME280;56357;52.304;4.870;2023-10-31T02:41:52;99951.31;;;17.72;63.29
69245;BME280;56357;52.304;4.870;2023-10-31T02:44:18;99957.59;;;17.83;63.06
69245;BME280;56357;52.304;4.870;2023-10-31T02:46:45;99955.06;;;17.86;62.84
69245;BME280;56357;52.304;4.870;2023-10-31T02:49:11;99964.88;;;17.84;63.09
69245;BME280;56357;52.304;4.870;2023-10-31T02:51:38;99961.47;;;17.87;62.84
69245;BME280;56357;52.304;4.870;2023-10-31T02:54:04;99968.53;;;17.84;63.22
69245;BME280;56357;52.304;4.870;2023-10-31T02:56:31;99965.78;;;17.79;63.13
69245;BME280;56357;52.304;4.870;2023-10-31T02:58:57;99972.22;;;17.80;63.02
69245;BME280;56357;52.304;4.870;2023-10-31T03:01:28;99975.91;;;17.75;63.16
69245;BME280;56357;52.304;4.870;2023-10-31T03:03:55;99975.91;;;17.75;63.15
69245;BME280;56357;52.304;4.870;2023-10-31T03:06:21;99974.25;;;17.74;63.29
69245;BME280;56357;52.304;4.870;2023-10-31T03:08:48;99973.09;;;17.75;63.00
69245;BME280;56357;52.304;4.870;2023-10-31T03:11:24;99981.50;;;17.75;63.02
69245;BME280;56357;52.304;4.870;2023-10-31T03:13:51;99983.72;;;17.78;63.12
69245;BME280;56357;52.304;4.870;2023-10-31T03:16:17;99983.06;;;17.86;62.75
69245;BME280;56357;52.304;4.870;2023-10-31T03:18:45;99983.06;;;17.86;63.09
69245;BME280;56357;52.304;4.870;2023-10-31T03:21:12;99981.16;;;17.82;63.11
69245;BME280;56357;52.304;4.870;2023-10-31T03:23:38;99989.78;;;17.85;62.87
69245;BME280;56357;52.304;4.870;2023-10-31T03:26:05;99997.34;;;17.85;63.04
69245;BME280;56357;52.304;4.870;2023-10-31T03:28:31;99993.88;;;17.93;62.82
69245;BME280;56357;52.304;4.870;2023-10-31T03:30:58;99989.75;;;17.90;63.00
69245;BME280;56357;52.304;4.870;2023-10-31T03:33:24;100002.94;;;17.85;63.05
69245;BME280;56357;52.304;4.870;2023-10-31T03:35:51;99999.25;;;17.89;63.11
69245;BME280;56357;52.304;4.870;2023-10-31T03:38:17;99994.84;;;17.83;63.33
69245;BME280;56357;52.304;4.870;2023-10-31T03:40:43;99999.72;;;17.96;62.83
69245;BME280;56357;52.304;4.870;2023-10-31T03:43:10;100010.69;;;17.93;63.05
69245;BME280;56357;52.304;4.870;2023-10-31T03:45:36;99998.13;;;17.90;63.21
69245;BME280;56357;52.304;4.870;2023-10-31T03:48:03;100008.44;;;17.95;62.90
69245;BME280;56357;52.304;4.870;2023-10-31T03:50:29;100012.06;;;17.95;63.03
69245;BME280;56357;52.304;4.870;2023-10-31T03:52:56;100017.53;;;18.05;62.90
69245;BME280;56357;52.304;4.870;2023-10-31T03:55:23;100021.53;;;17.99;62.63
69245;BME280;56357;52.304;4.870;2023-10-31T03:57:50;100015.88;;;18.04;62.89
69245;BME280;56357;52.304;4.870;2023-10-31T04:00:16;100028.75;;;18.05;62.93
69245;BME280;56357;52.304;4.870;2023-10-31T04:02:43;100030.59;;;18.15;62.80
69245;BME280;56357;52.304;4.870;2023-10-31T04:05:09;100025.47;;;17.98;63.27
69245;BME280;56357;52.304;4.870;2023-10-31T04:07:36;100027.06;;;18.04;62.91
69245;BME280;56357;52.304;4.870;2023-10-31T04:10:03;100021.41;;;18.09;62.86
69245;BME280;56357;52.304;4.870;2023-10-31T04:12:30;100023.59;;;18.12;62.94
69245;BME280;56357;52.304;4.870;2023-10-31T04:14:57;100029.75;;;18.14;62.78
69245;BME280;56357;52.304;4.870;2023-10-31T04:17:23;100025.66;;;18.07;62.74
69245;BME280;56357;52.304;4.870;2023-10-31T04:19:50;100027.03;;;18.09;62.77
69245;BME280;56357;52.304;4.870;2023-10-31T04:22:16;100026.41;;;18.12;62.59
69245;BME280;56357;52.304;4.870;2023-10-31T04:24:45;100013.69;;;18.01;62.72
69245;BME280;56357;52.304;4.870;2023-10-31T04:27:12;100032.72;;;18.23;62.55
69245;BME280;56357;52.304;4.870;2023-10-31T04:29:39;100040.09;;;18.14;62.92
69245;BME280;56357;52.304;4.870;2023-10-31T04:32:06;100031.88;;;18.22;62.63
69245;BME280;56357;52.304;4.870;2023-10-31T04:34:32;100034.06;;;18.25;62.67
69245;BME280;56357;52.304;4.870;2023-10-31T04:36:59;100034.16;;;18.20;62.67
69245;BME280;56357;52.304;4.870;2023-10-31T04:39:25;100044.22;;;18.21;62.54
69245;BME280;56357;52.304;4.870;2023-10-31T04:41:52;100038.47;;;18.32;62.33
69245;BME280;56357;52.304;4.870;2023-10-31T04:44:19;100038.06;;;18.19;62.74
69245;BME280;56357;52.304;4.870;2023-10-31T04:46:45;100047.72;;;18.32;62.33
69245;BME280;56357;52.304;4.870;2023-10-31T04:49:12;100042.03;;;18.18;62.12
69245;BME280;56357;52.304;4.870;2023-10-31T04:51:38;100045.34;;;18.20;62.67
69245;BME280;56357;52.304;4.870;2023-10-31T04:54:05;100043.84;;;18.28;62.32
69245;BME280;56357;52.304;4.870;2023-10-31T04:56:33;100046.66;;;18.28;62.64
69245;BME280;56357;52.304;4.870;2023-10-31T04:59:00;100059.28;;;18.25;62.85
69245;BME280;56357;52.304;4.870;2023-10-31T05:01:26;100062.19;;;18.20;62.54
69245;BME280;56357;52.304;4.870;2023-10-31T05:03:53;100061.03;;;18.21;63.06
69245;BME280;56357;52.304;4.870;2023-10-31T05:06:20;100064.16;;;18.39;62.54
69245;BME280;56357;52.304;4.870;2023-10-31T05:08:47;100063.09;;;18.35;62.50
69245;BME280;56357;52.304;4.870;2023-10-31T05:11:17;100064.66;;;18.46;62.42
69245;BME280;56357;52.304;4.870;2023-10-31T05:13:44;100055.09;;;18.47;61.83
69245;BME280;56357;52.304;4.870;2023-10-31T05:16:11;100061.00;;;18.45;62.54
69245;BME280;56357;52.304;4.870;2023-10-31T05:18:38;100066.00;;;18.48;62.18
69245;BME280;56357;52.304;4.870;2023-10-31T05:21:05;100069.16;;;18.42;62.14
69245;BME280;56357;52.304;4.870;2023-10-31T05:23:32;100068.41;;;18.36;62.49
69245;BME280;56357;52.304;4.870;2023-10-31T05:25:58;100068.19;;;18.33;62.23
69245;BME280;56357;52.304;4.870;2023-10-31T05:28:25;100074.59;;;18.33;62.68
69245;BME280;56357;52.304;4.870;2023-10-31T05:30:51;100066.34;;;18.23;62.31
69245;BME280;56357;52.304;4.870;2023-10-31T05:33:17;100080.72;;;18.16;63.16
69245;BME280;56357;52.304;4.870;2023-10-31T05:35:44;100082.00;;;18.48;62.61
69245;BME280;56357;52.304;4.870;2023-10-31T05:38:10;100083.25;;;18.37;62.87
69245;BME280;56357;52.304;4.870;2023-10-31T05:40:37;100078.25;;;18.34;62.46
69245;BME280;56357;52.304;4.870;2023-10-31T05:43:03;100095.69;;;18.31;62.71
69245;BME280;56357;52.304;4.870;2023-10-31T05:45:30;100091.13;;;18.35;62.57
69245;BME280;56357;52.304;4.870;2023-10-31T05:47:57;100102.59;;;18.38;62.68
69245;BME280;56357;52.304;4.870;2023-10-31T05:50:23;100097.22;;;18.42;62.27
69245;BME280;56357;52.304;4.870;2023-10-31T05:52:50;100099.91;;;18.52;62.48
69245;BME280;56357;52.304;4.870;2023-10-31T05:55:16;100118.03;;;18.36;62.42
69245;BME280;56357;52.304;4.870;2023-10-31T05:57:43;100112.91;;;18.43;62.95
69245;BME280;56357;52.304;4.870;2023-10-31T06:00:10;100115.72;;;18.43;61.95
69245;BME280;56357;52.304;4.870;2023-10-31T06:02:36;100112.97;;;18.38;61.57
69245;BME280;56357;52.304;4.870;2023-10-31T06:05:03;100119.41;;;18.38;62.70
69245;BME280;56357;52.304;4.870;2023-10-31T06:07:30;100121.31;;;18.43;62.13
69245;BME280;56357;52.304;4.870;2023-10-31T06:09:56;100125.81;;;18.44;62.13
69245;BME280;56357;52.304;4.870;2023-10-31T06:12:23;100129.06;;;18.27;62.56
69245;BME280;56357;52.304;4.870;2023-10-31T06:14:49;100136.19;;;18.43;62.20
69245;BME280;56357;52.304;4.870;2023-10-31T06:17:15;100139.63;;;18.35;62.40
69245;BME280;56357;52.304;4.870;2023-10-31T06:19:42;100138.47;;;18.60;62.31
69245;BME280;56357;52.304;4.870;2023-10-31T06:22:11;100132.31;;;18.58;62.43
69245;BME280;56357;52.304;4.870;2023-10-31T06:24:38;100138.56;;;18.55;62.38
69245;BME280;56357;52.304;4.870;2023-10-31T06:27:05;100147.31;;;19.09;61.88
69245;BME280;56357;52.304;4.870;2023-10-31T06:29:35;100140.28;;;19.25;61.29
69245;BME280;56357;52.304;4.870;2023-10-31T06:32:02;100148.72;;;18.69;62.68
69245;BME280;56357;52.304;4.870;2023-10-31T06:34:29;100151.50;;;18.51;61.42
69245;BME280;56357;52.304;4.870;2023-10-31T06:36:55;100151.06;;;18.39;62.02
69245;BME280;56357;52.304;4.870;2023-10-31T06:39:22;100148.25;;;18.39;62.50
69245;BME280;56357;52.304;4.870;2023-10-31T06:41:49;100144.78;;;18.52;62.25
69245;BME280;56357;52.304;4.870;2023-10-31T06:44:15;100151.59;;;18.64;62.09
69245;BME280;56357;52.304;4.870;2023-10-31T06:46:42;100156.31;;;18.69;62.00
69245;BME280;56357;52.304;4.870;2023-10-31T06:49:08;100160.09;;;18.78;62.58
69245;BME280;56357;52.304;4.870;2023-10-31T06:51:35;100171.09;;;18.74;62.11
69245;BME280;56357;52.304;4.870;2023-10-31T06:54:01;100174.94;;;18.60;62.62
69245;BME280;56357;52.304;4.870;2023-10-31T06:56:27;100173.69;;;18.71;62.82
69245;BME280;56357;52.304;4.870;2023-10-31T06:58:54;100178.75;;;18.69;62.86
69245;BME280;56357;52.304;4.870;2023-10-31T07:01:21;100183.50;;;18.50;62.77
69245;BME280;56357;52.304;4.870;2023-10-31T07:03:47;100190.19;;;18.72;62.97
69245;BME280;56357;52.304;4.870;2023-10-31T07:06:16;100187.53;;;18.62;62.32
69245;BME280;56357;52.304;4.870;2023-10-31T07:08:43;100192.25;;;18.67;63.04
69245;BME280;56357;52.304;4.870;2023-10-31T07:11:09;100197.91;;;18.62;62.81
69245;BME280;56357;52.304;4.870;2023-10-31T07:13:36;100196.75;;;19.05;61.69
69245;BME280;56357;52.304;4.870;2023-10-31T07:16:03;100204.97;;;18.59;62.19
69245;BME280;56357;52.304;4.870;2023-10-31T07:18:30;100207.59;;;18.51;62.67
69245;BME280;56357;52.304;4.870;2023-10-31T07:20:57;100211.53;;;18.50;62.61
69245;BME280;56357;52.304;4.870;2023-10-31T07:23:23;100212.97;;;18.47;62.88
69245;BME280;56357;52.304;4.870;2023-10-31T07:25:50;100213.56;;;18.44;62.28
69245;BME280;56357;52.304;4.870;2023-10-31T07:28:16;100224.88;;;18.58;62.23
69245;BME280;56357;52.304;4.870;2023-10-31T07:30:43;100228.41;;;18.45;62.77
69245;BME280;56357;52.304;4.870;2023-10-31T07:33:10;100228.16;;;18.65;62.59
69245;BME280;56357;52.304;4.870;2023-10-31T07:35:36;100233.91;;;18.55;62.80
69245;BME280;56357;52.304;4.870;2023-10-31T07:38:03;100235.09;;;18.49;63.89
69245;BME280;56357;52.304;4.870;2023-10-31T07:40:29;100239.38;;;18.65;62.76
69245;BME280;56357;52.304;4.870;2023-10-31T07:42:56;100237.22;;;18.57;62.75
69245;BME280;56357;52.304;4.870;2023-10-31T07:45:22;100242.13;;;18.70;63.27
69245;BME280;56357;52.304;4.870;2023-10-31T07:47:49;100241.59;;;18.68;62.24
69245;BME280;56357;52.304;4.870;2023-10-31T07:50:15;100233.47;;;18.66;62.54
69245;BME280;56357;52.304;4.870;2023-10-31T07:52:42;100246.19;;;18.59;62.76
69245;BME280;56357;52.304;4.870;2023-10-31T07:55:11;100234.31;;;18.67;62.44
69245;BME280;56357;52.304;4.870;2023-10-31T07:57:38;100245.03;;;18.83;62.44
69245;BME280;56357;52.304;4.870;2023-10-31T08:00:09;100247.03;;;19.01;62.69
69245;BME280;56357;52.304;4.870;2023-10-31T08:02:36;100243.41;;;19.19;61.89
69245;BME280;56357;52.304;4.870;2023-10-31T08:05:03;100242.22;;;19.44;61.23
69245;BME280;56357;52.304;4.870;2023-10-31T08:07:30;100248.44;;;19.41;61.13
69245;BME280;56357;52.304;4.870;2023-10-31T08:09:56;100245.50;;;19.51;61.61
69245;BME280;56357;52.304;4.870;2023-10-31T08:12:23;100250.72;;;19.39;61.82
69245;BME280;56357;52.304;4.870;2023-10-31T08:14:49;100249.63;;;19.16;62.42
69245;BME280;56357;52.304;4.870;2023-10-31T08:17:15;100253.84;;;18.95;63.36
69245;BME280;56357;52.304;4.870;2023-10-31T08:19:42;100254.84;;;19.04;63.52
69245;BME280;56357;52.304;4.870;2023-10-31T08:22:08;100258.41;;;19.10;62.79
69245;BME280;56357;52.304;4.870;2023-10-31T08:24:35;100269.88;;;19.13;63.09
69245;BME280;56357;52.304;4.870;2023-10-31T08:27:02;100264.50;;;19.17;63.99
69245;BME280;56357;52.304;4.870;2023-10-31T08:29:28;100264.00;;;19.34;64.18
69245;BME280;56357;52.304;4.870;2023-10-31T08:31:57;100270.69;;;19.38;63.04
69245;BME280;56357;52.304;4.870;2023-10-31T08:34:24;100276.56;;;19.17;63.82
69245;BME280;56357;52.304;4.870;2023-10-31T08:36:50;100271.00;;;19.36;63.53
69245;BME280;56357;52.304;4.870;2023-10-31T08:39:18;100275.03;;;21.40;58.77
69245;BME280;56357;52.304;4.870;2023-10-31T08:41:51;100277.81;;;21.54;58.75
69245;BME280;56357;52.304;4.870;2023-10-31T08:44:18;100261.63;;;24.29;51.78
69245;BME280;56357;52.304;4.870;2023-10-31T08:46:44;100265.84;;;24.78;50.33
69245;BME280;56357;52.304;4.870;2023-10-31T08:49:12;100264.13;;;23.71;53.19
69245;BME280;56357;52.304;4.870;2023-10-31T08:51:39;100265.50;;;23.82;52.88
69245;BME280;56357;52.304;4.870;2023-10-31T08:54:05;100279.53;;;22.43;57.18
69245;BME280;56357;52.304;4.870;2023-10-31T08:56:32;100285.59;;;20.94;60.66
69245;BME280;56357;52.304;4.870;2023-10-31T08:58:58;100288.84;;;20.87;60.87
69245;BME280;56357;52.304;4.870;2023-10-31T09:01:26;100292.91;;;20.95;60.96
69245;BME280;56357;52.304;4.870;2023-10-31T09:03:54;100294.38;;;20.79;62.00
69245;BME280;56357;52.304;4.870;2023-10-31T09:06:21;100298.88;;;20.93;61.27
69245;BME280;56357;52.304;4.870;2023-10-31T09:08:47;100302.47;;;21.48;60.92
69245;BME280;56357;52.304;4.870;2023-10-31T09:11:15;100304.78;;;20.92;62.07
69245;BME280;56357;52.304;4.870;2023-10-31T09:13:41;100313.88;;;20.30;63.44
69245;BME280;56357;52.304;4.870;2023-10-31T09:16:08;100311.56;;;20.18;65.24
69245;BME280;56357;52.304;4.870;2023-10-31T09:18:35;100315.88;;;20.11;66.13
69245;BME280;56357;52.304;4.870;2023-10-31T09:21:02;100315.34;;;20.08;66.24
69245;BME280;56357;52.304;4.870;2023-10-31T09:23:28;100326.59;;;20.08;66.35
69245;BME280;56357;52.304;4.870;2023-10-31T09:25:55;100335.03;;;20.08;66.68
69245;BME280;56357;52.304;4.870;2023-10-31T09:28:22;100334.72;;;20.10;67.37
69245;BME280;56357;52.304;4.870;2023-10-31T09:30:48;100340.59;;;19.95;68.20
69245;BME280;56357;52.304;4.870;2023-10-31T09:33:15;100342.84;;;20.12;68.43
69245;BME280;56357;52.304;4.870;2023-10-31T09:35:41;100349.81;;;20.33;68.30
69245;BME280;56357;52.304;4.870;2023-10-31T09:38:08;100343.97;;;20.29;67.15
69245;BME280;56357;52.304;4.870;2023-10-31T09:40:38;100348.53;;;20.44;66.63
69245;BME280;56357;52.304;4.870;2023-10-31T09:43:04;100352.16;;;20.44;66.23
69245;BME280;56357;52.304;4.870;2023-10-31T09:45:32;100344.13;;;20.38;65.77
69245;BME280;56357;52.304;4.870;2023-10-31T09:48:00;100340.59;;;20.46;65.43
69245;BME280;56357;52.304;4.870;2023-10-31T09:50:29;100354.47;;;20.56;65.39
69245;BME280;56357;52.304;4.870;2023-10-31T09:52:56;100353.88;;;20.59;65.04
69245;BME280;56357;52.304;4.870;2023-10-31T09:55:24;100351.63;;;20.88;64.71
69245;BME280;56357;52.304;4.870;2023-10-31T09:57:50;100352.03;;;20.81;63.49
69245;BME280;56357;52.304;4.870;2023-10-31T10:00:18;100349.72;;;20.83;63.91
69245;BME280;56357;52.304;4.870;2023-10-31T10:02:44;100359.13;;;20.92;64.05
69245;BME280;56357;52.304;4.870;2023-10-31T10:05:14;100361.25;;;21.01;63.20
69245;BME280;56357;52.304;4.870;2023-10-31T10:07:42;100358.19;;;20.97;62.90
69245;BME280;56357;52.304;4.870;2023-10-31T10:10:11;100369.91;;;21.04;63.07
69245;BME280;56357;52.304;4.870;2023-10-31T10:12:37;100371.78;;;21.09;62.48
69245;BME280;56357;52.304;4.870;2023-10-31T10:15:04;100366.25;;;21.04;62.76
69245;BME280;56357;52.304;4.870;2023-10-31T10:17:32;100372.19;;;21.02;62.64
69245;BME280;56357;52.304;4.870;2023-10-31T10:22:36;100379.44;;;20.76;62.87
69245;BME280;56357;52.304;4.870;2023-10-31T10:25:06;100379.31;;;20.81;63.02
69245;BME280;56357;52.304;4.870;2023-10-31T10:27:32;100375.28;;;20.87;62.50
69245;BME280;56357;52.304;4.870;2023-10-31T10:29:59;100368.59;;;20.83;62.95
69245;BME280;56357;52.304;4.870;2023-10-31T10:32:25;100373.88;;;20.71;62.52
69245;BME280;56357;52.304;4.870;2023-10-31T10:34:52;100384.13;;;20.80;62.21
69245;BME280;56357;52.304;4.870;2023-10-31T10:37:18;100385.97;;;20.71;62.26
69245;BME280;56357;52.304;4.870;2023-10-31T10:39:47;100397.13;;;20.63;62.36
69245;BME280;56357;52.304;4.870;2023-10-31T10:42:17;100390.63;;;20.49;62.16
69245;BME280;56357;52.304;4.870;2023-10-31T10:44:45;100392.47;;;20.40;62.63
69245;BME280;56357;52.304;4.870;2023-10-31T10:47:13;100384.50;;;20.28;62.31
69245;BME280;56357;52.304;4.870;2023-10-31T10:49:42;100390.03;;;20.33;62.64
69245;BME280;56357;52.304;4.870;2023-10-31T10:57:09;100399.00;;;20.17;62.46
69245;BME280;56357;52.304;4.870;2023-10-31T10:59:43;100403.56;;;20.13;63.06
69245;BME280;56357;52.304;4.870;2023-10-31T11:02:17;100407.06;;;20.04;63.11
69245;BME280;56357;52.304;4.870;2023-10-31T11:04:46;100398.31;;;20.06;62.54
69245;BME280;56357;52.304;4.870;2023-10-31T11:07:13;100395.44;;;20.11;62.20
69245;BME280;56357;52.304;4.870;2023-10-31T11:09:42;100401.97;;;20.25;62.15
69245;BME280;56357;52.304;4.870;2023-10-31T11:12:10;100401.97;;;20.25;61.98
69245;BME280;56357;52.304;4.870;2023-10-31T11:14:37;100405.16;;;20.37;61.55
69245;BME280;56357;52.304;4.870;2023-10-31T11:17:11;100400.59;;;20.41;61.78
69245;BME280;56357;52.304;4.870;2023-10-31T11:19:40;100400.50;;;20.46;61.33
69245;BME280;56357;52.304;4.870;2023-10-31T11:22:07;100410.53;;;20.52;61.60
69245;BME280;56357;52.304;4.870;2023-10-31T11:24:36;100412.09;;;20.58;61.43
69245;BME280;56357;52.304;4.870;2023-10-31T11:27:05;100407.75;;;20.66;60.38
69245;BME280;56357;52.304;4.870;2023-10-31T11:29:32;100410.84;;;20.51;60.54
69245;BME280;56357;52.304;4.870;2023-10-31T11:31:59;100412.50;;;20.52;61.25
69245;BME280;56357;52.304;4.870;2023-10-31T11:34:26;100406.66;;;20.48;60.81
69245;BME280;56357;52.304;4.870;2023-10-31T11:36:53;100408.72;;;20.43;60.75
69245;BME280;56357;52.304;4.870;2023-10-31T11:39:21;100406.31;;;20.36;60.82
69245;BME280;56357;52.304;4.870;2023-10-31T11:41:54;100404.31;;;20.37;61.21
69245;BME280;56357;52.304;4.870;2023-10-31T11:44:27;100403.88;;;20.30;61.05
69245;BME280;56357;52.304;4.870;2023-10-31T11:46:53;100415.56;;;20.37;60.99
69245;BME280;56357;52.304;4.870;2023-10-31T11:49:45;100411.78;;;20.28;61.06
69245;BME280;56357;52.304;4.870;2023-10-31T11:52:16;100409.88;;;20.23;61.55
69245;BME280;56357;52.304;4.870;2023-10-31T11:54:43;100411.25;;;20.26;61.40
69245;BME280;56357;52.304;4.870;2023-10-31T11:57:10;100420.31;;;20.23;61.05
69245;BME280;56357;52.304;4.870;2023-10-31T11:59:37;100412.63;;;20.28;61.37
69245;BME280;56357;52.304;4.870;2023-10-31T12:02:14;100424.25;;;20.22;61.01
69245;BME280;56357;52.304;4.870;2023-10-31T12:04:41;100426.84;;;20.18;61.32
69245;BME280;56357;52.304;4.870;2023-10-31T12:07:08;100432.75;;;20.17;61.07
69245;BME280;56357;52.304;4.870;2023-10-31T12:09:48;100434.50;;;20.13;61.60
69245;BME280;56357;52.304;4.870;2023-10-31T12:12:15;100435.28;;;20.18;61.04
69245;BME280;56357;52.304;4.870;2023-10-31T12:14:41;100435.34;;;20.13;60.68
69245;BME280;56357;52.304;4.870;2023-10-31T12:17:08;100440.44;;;20.11;61.72
69245;BME280;56357;52.304;4.870;2023-10-31T12:19:35;100437.31;;;20.13;61.14
69245;BME280;56357;52.304;4.870;2023-10-31T12:22:12;100446.28;;;20.15;61.13
69245;BME280;56357;52.304;4.870;2023-10-31T12:24:39;100453.09;;;20.08;61.19
69245;BME280;56357;52.304;4.870;2023-10-31T12:27:06;100446.94;;;20.06;61.47
69245;BME280;56357;52.304;4.870;2023-10-31T12:29:32;100449.69;;;20.12;61.14
69245;BME280;56357;52.304;4.870;2023-10-31T12:31:59;100448.00;;;20.11;61.26
69245;BME280;56357;52.304;4.870;2023-10-31T12:34:25;100455.38;;;20.06;61.20
69245;BME280;56357;52.304;4.870;2023-10-31T12:36:53;100458.72;;;20.08;61.30
69245;BME280;56357;52.304;4.870;2023-10-31T12:39:25;100462.31;;;19.95;61.63
69245;BME280;56357;52.304;4.870;2023-10-31T12:41:53;100449.91;;;19.96;61.63
69245;BME280;56357;52.304;4.870;2023-10-31T12:44:24;100450.66;;;20.02;62.35
69245;BME280;56357;52.304;4.870;2023-10-31T12:46:51;100457.22;;;19.97;61.82
69245;BME280;56357;52.304;4.870;2023-10-31T12:49:20;100457.03;;;20.07;61.81
69245;BME280;56357;52.304;4.870;2023-10-31T12:54:30;100465.41;;;20.13;62.23
69245;BME280;56357;52.304;4.870;2023-10-31T12:57:04;100468.31;;;20.45;61.71
69245;BME280;56357;52.304;4.870;2023-10-31T12:59:36;100464.25;;;19.95;61.46
69245;BME280;56357;52.304;4.870;2023-10-31T13:02:04;100464.09;;;19.86;62.24